createdAt,value
2023-03-08T00:01:22.733Z,-0.55
2023-03-08T00:03:57.046Z,-0.52
2023-03-08T00:06:24.766Z,-0.53
2023-03-08T00:08:58.217Z,-0.66
2023-03-08T00:11:25.083Z,-0.64
2023-03-08T00:13:51.786Z,-0.63
2023-03-08T00:16:18.354Z,-0.59
2023-03-08T00:18:44.835Z,-0.67
2023-03-08T00:21:17.808Z,-0.76
2023-03-08T00:23:45.202Z,-0.77
2023-03-08T00:26:12.244Z,-0.59
2023-03-08T00:28:39.418Z,-0.83
2023-03-08T00:31:08.474Z,-0.90
2023-03-08T00:33:35.690Z,-0.76
2023-03-08T00:36:04.868Z,-0.84
2023-03-08T00:38:33.073Z,-0.82
2023-03-08T00:40:59.516Z,-0.76
2023-03-08T00:43:27.222Z,-0.90
2023-03-08T00:45:54.766Z,-0.88
2023-03-08T00:48:22.766Z,-0.72
2023-03-08T00:50:51.937Z,-0.85
2023-03-08T00:53:18.533Z,-0.83
2023-03-08T00:55:51.311Z,-0.68
2023-03-08T00:58:18.303Z,-0.59
2023-03-08T01:00:45.220Z,-0.50
2023-03-08T01:03:11.889Z,-0.54
2023-03-08T01:05:46.633Z,-0.68
2023-03-08T01:08:14.155Z,-0.66
2023-03-08T01:10:40.587Z,-0.61
2023-03-08T01:13:09.488Z,-0.51
2023-03-08T01:15:38.422Z,-0.59
2023-03-08T01:18:06.244Z,-0.55
2023-03-08T01:20:33.580Z,-0.54
2023-03-08T01:23:00.376Z,-0.57
2023-03-08T01:25:27.368Z,-0.59
2023-03-08T01:27:53.942Z,-0.58
2023-03-08T01:30:21.113Z,-0.50
2023-03-08T01:32:47.609Z,-0.59
2023-03-08T01:35:14.182Z,-0.66
2023-03-08T01:37:40.690Z,-0.69
2023-03-08T01:40:08.747Z,-0.73
2023-03-08T01:42:37.872Z,-0.71
2023-03-08T01:45:26.448Z,-0.67
2023-03-08T01:47:53.275Z,-0.77
2023-03-08T01:50:25.511Z,-0.78
2023-03-08T01:52:53.829Z,-0.86
2023-03-08T01:55:21.204Z,-0.90
2023-03-08T01:57:51.706Z,-0.57
2023-03-08T02:00:24.074Z,-0.79
2023-03-08T02:03:04.011Z,-0.84
2023-03-08T02:05:31.504Z,-1.00
2023-03-08T02:08:06.194Z,-1.07
2023-03-08T02:10:37.545Z,-1.06
2023-03-08T02:13:06.455Z,-1.04
2023-03-08T02:15:34.276Z,-1.01
2023-03-08T02:18:00.727Z,-0.88
2023-03-08T02:20:31.517Z,-0.91
2023-03-08T02:23:09.094Z,-0.97
2023-03-08T02:25:35.549Z,-1.00
2023-03-08T02:28:04.100Z,-0.97
2023-03-08T02:30:34.346Z,-0.79
2023-03-08T02:33:00.895Z,-0.94
2023-03-08T02:35:29.157Z,-0.99
2023-03-08T02:37:55.878Z,-0.95
2023-03-08T02:40:23.964Z,-0.97
2023-03-08T02:42:53.197Z,-0.93
2023-03-08T02:45:20.003Z,-1.06
2023-03-08T02:47:46.442Z,-1.06
2023-03-08T02:50:12.946Z,-0.91
2023-03-08T02:52:39.401Z,-0.96
2023-03-08T02:55:06.542Z,-0.98
2023-03-08T02:57:33.024Z,-1.06
2023-03-08T03:00:00.374Z,-1.15
2023-03-08T03:02:28.119Z,-1.13
2023-03-08T03:04:55.066Z,-1.04
2023-03-08T03:07:21.590Z,-1.12
2023-03-08T03:09:49.516Z,-1.19
2023-03-08T03:12:17.013Z,-1.21
2023-03-08T03:14:43.538Z,-1.18
2023-03-08T03:17:10.047Z,-1.22
2023-03-08T03:19:37.590Z,-1.17
2023-03-08T03:22:04.326Z,-1.25
2023-03-08T03:24:31.205Z,-1.29
2023-03-08T03:26:59.594Z,-1.26
2023-03-08T03:29:29.319Z,-1.20
2023-03-08T03:32:06.445Z,-1.18
2023-03-08T03:34:33.235Z,-1.20
2023-03-08T03:36:59.913Z,-1.25
2023-03-08T03:39:26.436Z,-1.28
2023-03-08T03:41:53.352Z,-1.19
2023-03-08T03:44:19.890Z,-1.16
2023-03-08T03:46:48.861Z,-1.10
2023-03-08T03:49:21.069Z,-1.13
2023-03-08T03:51:47.581Z,-1.15
2023-03-08T03:54:20.187Z,-1.29
2023-03-08T03:56:47.764Z,-1.27
2023-03-08T03:59:14.907Z,-1.33
2023-03-08T04:01:42.053Z,-1.23
2023-03-08T04:04:25.772Z,-1.27
2023-03-08T04:06:54.031Z,-1.27
2023-03-08T04:09:24.391Z,-1.24
2023-03-08T04:12:05.576Z,-1.28
2023-03-08T04:14:33.272Z,-1.28
2023-03-08T04:16:59.913Z,-1.29
2023-03-08T04:19:35.874Z,-1.23
2023-03-08T04:22:04.188Z,-1.29
2023-03-08T04:24:37.828Z,-1.28
2023-03-08T04:27:09.692Z,-1.23
2023-03-08T04:29:36.566Z,-1.25
2023-03-08T04:32:04.656Z,-1.29
2023-03-08T04:34:40.101Z,-1.38
2023-03-08T04:37:08.563Z,-1.41
2023-03-08T04:39:35.451Z,-1.37
2023-03-08T04:42:02.171Z,-1.37
2023-03-08T04:44:31.029Z,-1.42
2023-03-08T04:46:58.172Z,-1.43
2023-03-08T04:49:34.880Z,-1.53
2023-03-08T04:52:02.933Z,-1.43
2023-03-08T04:54:33.166Z,-1.50
2023-03-08T04:57:04.265Z,-1.54
2023-03-08T04:59:32.611Z,-1.55
2023-03-08T05:02:04.175Z,-1.57
2023-03-08T05:04:33.071Z,-1.57
2023-03-08T05:07:00.128Z,-1.54
2023-03-08T05:09:32.903Z,-1.53
2023-03-08T05:11:59.391Z,-1.43
2023-03-08T05:14:34.110Z,-1.46
2023-03-08T05:17:02.503Z,-1.52
2023-03-08T05:19:32.784Z,-1.54
2023-03-08T05:21:59.269Z,-1.54
2023-03-08T05:24:27.342Z,-1.53
2023-03-08T05:26:56.296Z,-1.54
2023-03-08T05:29:23.216Z,-1.57
2023-03-08T05:31:50.937Z,-1.57
2023-03-08T05:34:18.308Z,-1.57
2023-03-08T05:36:47.234Z,-1.66
2023-03-08T05:39:13.650Z,-1.68
2023-03-08T05:41:46.813Z,-1.78
2023-03-08T05:44:18.779Z,-1.78
2023-03-08T05:46:45.284Z,-1.82
2023-03-08T05:49:12.062Z,-1.87
2023-03-08T05:51:39.512Z,-1.90
2023-03-08T05:54:06.404Z,-1.90
2023-03-08T05:56:34.438Z,-1.81
2023-03-08T05:59:13.050Z,-1.74
2023-03-08T06:01:40.699Z,-1.72
2023-03-08T06:04:17.514Z,-1.68
2023-03-08T06:06:47.902Z,-1.70
2023-03-08T06:09:14.330Z,-1.70
2023-03-08T06:11:42.490Z,-1.62
2023-03-08T06:14:10.072Z,-1.64
2023-03-08T06:16:37.595Z,-1.80
2023-03-08T06:19:04.500Z,-1.82
2023-03-08T06:21:32.727Z,-1.80
2023-03-08T06:24:02.485Z,-1.82
2023-03-08T06:26:29.376Z,-1.79
2023-03-08T06:28:55.811Z,-1.76
2023-03-08T06:31:27.775Z,-1.69
2023-03-08T06:33:55.197Z,-1.67
2023-03-08T06:36:26.320Z,-1.61
2023-03-08T06:38:54.395Z,-1.56
2023-03-08T06:41:22.884Z,-1.50
2023-03-08T06:43:54.075Z,-1.46
2023-03-08T06:46:47.772Z,-1.36
2023-03-08T06:49:14.724Z,-1.28
2023-03-08T06:51:41.810Z,-1.24
2023-03-08T06:54:09.784Z,-1.21
2023-03-08T06:56:36.223Z,-1.13
2023-03-08T06:59:02.695Z,-1.06
2023-03-08T07:01:29.328Z,-0.96
2023-03-08T07:03:55.891Z,-0.89
2023-03-08T07:06:24.310Z,-0.84
2023-03-08T07:08:51.834Z,-0.79
2023-03-08T07:11:18.701Z,-0.75
2023-03-08T07:13:45.125Z,-0.70
2023-03-08T07:16:14.260Z,-0.68
2023-03-08T07:18:41.503Z,-0.66
2023-03-08T07:21:10.095Z,-0.67
2023-03-08T07:23:36.681Z,-0.53
2023-03-08T07:26:07.792Z,-0.52
2023-03-08T07:28:34.625Z,-0.47
2023-03-08T07:31:01.039Z,-0.42
2023-03-08T07:33:28.624Z,-0.35
2023-03-08T07:35:55.717Z,-0.29
2023-03-08T07:38:22.479Z,-0.25
2023-03-08T07:40:54.934Z,-0.22
2023-03-08T07:43:21.489Z,-0.21
2023-03-08T07:45:53.790Z,-0.17
2023-03-08T07:48:20.381Z,-0.16
2023-03-08T07:50:46.887Z,-0.06
2023-03-08T07:53:13.317Z,0.02
2023-03-08T07:55:39.760Z,0.06
2023-03-08T07:58:06.831Z,0.12
2023-03-08T08:00:33.321Z,0.15
2023-03-08T08:02:59.879Z,0.21
2023-03-08T08:05:26.494Z,0.22
2023-03-08T08:07:53.370Z,0.29
2023-03-08T08:10:19.956Z,0.33
2023-03-08T08:12:46.356Z,0.35
2023-03-08T08:15:12.919Z,0.40
2023-03-08T08:17:39.859Z,0.46
2023-03-08T08:20:08.080Z,0.45
2023-03-08T08:22:36.512Z,0.47
2023-03-08T08:25:07.543Z,0.47
2023-03-08T08:27:34.610Z,0.53
2023-03-08T08:30:02.498Z,0.59
2023-03-08T08:32:29.455Z,0.61
2023-03-08T08:34:55.933Z,0.60
2023-03-08T08:37:22.942Z,0.64
2023-03-08T08:39:49.366Z,0.65
2023-03-08T08:42:15.901Z,0.67
2023-03-08T08:44:42.262Z,0.68
2023-03-08T08:47:08.776Z,0.67
2023-03-08T08:49:35.407Z,0.70
2023-03-08T08:52:04.496Z,0.69
2023-03-08T08:54:32.733Z,0.78
2023-03-08T08:56:59.313Z,0.81
2023-03-08T08:59:25.812Z,0.83
2023-03-08T09:01:52.398Z,0.88
2023-03-08T09:04:20.612Z,0.87
2023-03-08T09:06:47.315Z,0.97
2023-03-08T09:09:13.717Z,0.93
2023-03-08T09:11:53.828Z,1.00
2023-03-08T09:14:21.685Z,1.09
2023-03-08T09:16:48.254Z,1.08
2023-03-08T09:19:15.445Z,1.09
2023-03-08T09:21:42.088Z,1.13
2023-03-08T09:24:10.485Z,1.24
2023-03-08T09:26:37.392Z,1.25
2023-03-08T09:29:05.466Z,1.33
2023-03-08T09:31:34.957Z,1.29
2023-03-08T09:34:04.674Z,1.38
2023-03-08T09:36:31.480Z,1.42
2023-03-08T09:38:58.002Z,1.50
2023-03-08T09:41:27.296Z,1.58
2023-03-08T09:44:04.481Z,1.57
2023-03-08T09:46:36.034Z,1.62
2023-03-08T09:49:05.314Z,1.72
2023-03-08T09:51:39.019Z,1.64
2023-03-08T09:54:12.390Z,1.58
2023-03-08T09:56:46.254Z,1.63
2023-03-08T09:59:19.160Z,1.67
2023-03-08T10:02:00.345Z,1.67
2023-03-08T10:05:13.977Z,1.67
2023-03-08T10:08:05.660Z,1.71
2023-03-08T10:10:41.984Z,1.85
2023-03-08T10:13:23.582Z,1.90
2023-03-08T10:15:53.985Z,2.02
2023-03-08T10:18:31.639Z,2.09
2023-03-08T10:21:00.994Z,2.21
2023-03-08T10:23:35.123Z,2.10
2023-03-08T10:26:12.631Z,2.09
2023-03-08T10:28:39.246Z,2.20
2023-03-08T10:31:21.345Z,2.16
2023-03-08T10:33:51.157Z,2.14
2023-03-08T10:36:21.157Z,2.19
2023-03-08T10:39:07.453Z,2.10
2023-03-08T10:41:43.370Z,2.10
2023-03-08T10:44:15.862Z,1.98
2023-03-08T10:46:50.408Z,1.95
2023-03-08T10:49:19.291Z,1.95
2023-03-08T10:52:00.285Z,2.06
2023-03-08T10:54:28.649Z,2.19
2023-03-08T10:56:59.722Z,2.35
2023-03-08T10:59:32.398Z,2.21
2023-03-08T11:02:15.066Z,2.26
2023-03-08T11:04:53.778Z,2.39
2023-03-08T11:07:33.359Z,2.62
2023-03-08T11:10:11.965Z,2.55
2023-03-08T11:12:38.698Z,2.35
2023-03-08T11:15:16.165Z,2.57
2023-03-08T11:17:51.849Z,2.68
2023-03-08T11:20:51.635Z,2.76
2023-03-08T11:23:33.878Z,2.80
2023-03-08T11:26:23.772Z,2.74
2023-03-08T11:29:02.697Z,2.80
2023-03-08T11:32:07.378Z,2.94
2023-03-08T11:34:47.948Z,2.84
2023-03-08T11:37:25.642Z,2.85
2023-03-08T11:40:07.102Z,2.86
2023-03-08T11:42:52.733Z,2.91
2023-03-08T11:45:29.403Z,2.95
2023-03-08T11:48:24.466Z,3.03
2023-03-08T11:51:06.381Z,3.04
2023-03-08T11:53:51.438Z,3.17
2023-03-08T11:56:34.425Z,3.02
2023-03-08T11:59:18.444Z,2.84
2023-03-08T12:01:50.296Z,2.88
2023-03-08T12:04:22.345Z,2.88
2023-03-08T12:06:50.316Z,2.98
2023-03-08T12:09:43.127Z,3.09
2023-03-08T12:12:28.947Z,3.06
2023-03-08T12:15:14.376Z,3.04
2023-03-08T12:17:48.445Z,3.13
2023-03-08T12:20:20.568Z,3.18
2023-03-08T12:22:55.944Z,3.03
2023-03-08T12:25:28.707Z,3.09
2023-03-08T12:28:10.277Z,3.30
2023-03-08T12:30:54.427Z,3.32
2023-03-08T12:33:22.420Z,3.30
2023-03-08T12:35:54.872Z,3.49
2023-03-08T12:38:21.475Z,3.33
2023-03-08T12:40:50.968Z,3.42
2023-03-08T12:43:20.234Z,3.15
2023-03-08T12:46:01.452Z,3.09
2023-03-08T12:48:31.875Z,3.08
2023-03-08T12:51:04.684Z,3.08
2023-03-08T12:53:39.216Z,2.97
2023-03-08T12:56:11.719Z,3.02
2023-03-08T12:58:47.445Z,2.95
2023-03-08T13:01:38.279Z,2.88
2023-03-08T13:04:38.611Z,2.96
2023-03-08T13:07:07.532Z,2.95
2023-03-08T13:09:42.894Z,2.65
2023-03-08T13:12:15.211Z,2.69
2023-03-08T13:14:41.613Z,2.63
2023-03-08T13:17:33.052Z,2.58
2023-03-08T13:20:07.968Z,2.57
2023-03-08T13:22:44.236Z,2.58
2023-03-08T13:25:28.718Z,2.49
2023-03-08T13:28:06.649Z,2.48
2023-03-08T13:30:38.618Z,2.37
2023-03-08T13:33:09.144Z,2.50
2023-03-08T13:35:35.676Z,2.39
2023-03-08T13:38:02.226Z,2.28
2023-03-08T13:40:31.057Z,2.17
2023-03-08T13:43:02.733Z,2.23
2023-03-08T13:45:29.519Z,2.18
2023-03-08T13:48:00.422Z,2.26
2023-03-08T13:50:31.855Z,2.26
2023-03-08T13:53:02.139Z,2.13
2023-03-08T13:55:39.210Z,2.09
2023-03-08T13:58:06.439Z,2.07
2023-03-08T14:00:36.260Z,2.08
2023-03-08T14:03:07.489Z,1.95
2023-03-08T14:05:43.578Z,1.75
2023-03-08T14:08:23.237Z,1.79
2023-03-08T14:11:07.045Z,1.75
2023-03-08T14:13:36.112Z,1.77
2023-03-08T14:16:06.367Z,1.77
2023-03-08T14:18:39.007Z,1.79
2023-03-08T14:21:15.276Z,1.73
2023-03-08T14:23:54.078Z,1.72
2023-03-08T14:26:35.534Z,1.83
2023-03-08T14:29:11.448Z,1.82
2023-03-08T14:31:39.327Z,1.74
2023-03-08T14:34:18.733Z,1.82
2023-03-08T14:36:54.598Z,1.73
2023-03-08T14:39:23.093Z,1.69
2023-03-08T14:41:49.556Z,1.58
2023-03-08T14:44:21.567Z,1.67
2023-03-08T14:46:48.827Z,1.65
2023-03-08T14:49:22.131Z,1.56
2023-03-08T14:51:49.200Z,1.63
2023-03-08T14:54:30.891Z,1.62
2023-03-08T14:56:57.870Z,1.58
2023-03-08T14:59:28.078Z,1.56
2023-03-08T15:01:55.144Z,1.44
2023-03-08T15:04:24.816Z,1.51
2023-03-08T15:06:54.263Z,1.62
2023-03-08T15:09:22.656Z,1.72
2023-03-08T15:11:52.666Z,1.69
2023-03-08T15:14:19.160Z,1.71
2023-03-08T15:16:45.845Z,1.76
2023-03-08T15:19:13.885Z,1.70
2023-03-08T15:21:40.611Z,1.67
2023-03-08T15:24:07.727Z,1.59
2023-03-08T15:26:34.224Z,1.50
2023-03-08T15:29:03.776Z,1.50
2023-03-08T15:31:31.498Z,1.60
2023-03-08T15:33:58.215Z,1.58
2023-03-08T15:36:24.792Z,1.48
2023-03-08T15:38:51.799Z,1.44
2023-03-08T15:41:18.393Z,1.42
2023-03-08T15:43:44.807Z,1.41
2023-03-08T15:46:15.364Z,1.41
2023-03-08T15:48:42.685Z,1.31
2023-03-08T15:51:18.222Z,1.43
2023-03-08T15:53:44.929Z,1.34
2023-03-08T15:56:11.373Z,1.20
2023-03-08T15:58:37.922Z,1.17
2023-03-08T16:01:05.484Z,1.20
2023-03-08T16:03:32.152Z,1.16
2023-03-08T16:05:59.359Z,0.97
2023-03-08T16:08:28.471Z,0.99
2023-03-08T16:10:55.226Z,0.97
2023-03-08T16:13:24.374Z,1.00
2023-03-08T16:15:50.987Z,0.93
2023-03-08T16:18:17.445Z,0.98
2023-03-08T16:20:46.050Z,0.94
2023-03-08T16:23:12.722Z,0.93
2023-03-08T16:25:42.285Z,0.87
2023-03-08T16:28:09.841Z,0.76
2023-03-08T16:30:38.580Z,0.83
2023-03-08T16:33:05.025Z,0.76
2023-03-08T16:35:31.699Z,0.65
2023-03-08T16:37:58.261Z,0.61
2023-03-08T16:40:25.099Z,0.59
2023-03-08T16:42:51.610Z,0.57
2023-03-08T16:45:18.333Z,0.55
2023-03-08T16:47:44.782Z,0.57
2023-03-08T16:50:14.284Z,0.52
2023-03-08T16:52:40.767Z,0.56
2023-03-08T16:55:08.037Z,0.59
2023-03-08T16:57:35.846Z,0.58
2023-03-08T17:00:06.547Z,0.47
2023-03-08T17:02:33.359Z,0.38
2023-03-08T17:04:59.904Z,0.33
2023-03-08T17:07:26.324Z,0.49
2023-03-08T17:09:53.004Z,0.42
2023-03-08T17:12:19.533Z,0.36
2023-03-08T17:14:46.022Z,0.47
2023-03-08T17:17:13.652Z,0.33
2023-03-08T17:19:41.156Z,0.23
2023-03-08T17:22:08.688Z,0.27
2023-03-08T17:24:35.102Z,0.20
2023-03-08T17:27:02.668Z,0.28
2023-03-08T17:29:29.115Z,0.29
2023-03-08T17:31:55.802Z,0.18
2023-03-08T17:34:23.684Z,0.16
2023-03-08T17:36:51.517Z,0.10
2023-03-08T17:39:19.179Z,0.14
2023-03-08T17:41:45.917Z,0.20
2023-03-08T17:44:13.036Z,0.18
2023-03-08T17:46:39.519Z,0.22
2023-03-08T17:49:06.471Z,0.08
2023-03-08T17:51:33.793Z,0.21
2023-03-08T17:54:01.181Z,0.10
2023-03-08T17:56:30.341Z,0.14
2023-03-08T17:58:58.706Z,0.08
2023-03-08T18:01:28.192Z,0.08
2023-03-08T18:03:55.633Z,0.02
2023-03-08T18:06:33.303Z,0.00
2023-03-08T18:09:02.321Z,0.01
2023-03-08T18:11:29.107Z,0.07
2023-03-08T18:13:56.009Z,-0.06
2023-03-08T18:16:23.343Z,-0.03
2023-03-08T18:18:50.752Z,0.03
2023-03-08T18:21:18.518Z,-0.03
2023-03-08T18:23:45.312Z,-0.03
2023-03-08T18:26:14.041Z,0.00
2023-03-08T18:28:41.173Z,-0.09
2023-03-08T18:31:09.315Z,0.00
2023-03-08T18:33:35.873Z,-0.07
2023-03-08T18:36:02.445Z,-0.07
2023-03-08T18:38:28.964Z,-0.07
2023-03-08T18:40:55.571Z,-0.10
2023-03-08T18:43:21.990Z,-0.05
2023-03-08T18:45:56.520Z,-0.11
2023-03-08T18:48:24.315Z,-0.20
2023-03-08T18:50:51.221Z,-0.13
2023-03-08T18:53:17.880Z,-0.09
2023-03-08T18:55:55.002Z,-0.10
2023-03-08T18:58:21.995Z,-0.20
2023-03-08T19:00:48.433Z,-0.19
2023-03-08T19:03:14.973Z,-0.15
2023-03-08T19:05:42.108Z,-0.27
2023-03-08T19:08:08.584Z,-0.27
2023-03-08T19:10:35.040Z,-0.17
2023-03-08T19:13:02.084Z,-0.21
2023-03-08T19:15:28.593Z,-0.23
2023-03-08T19:17:56.355Z,-0.21
2023-03-08T19:20:22.992Z,-0.19
2023-03-08T19:22:49.507Z,-0.27
2023-03-08T19:25:16.151Z,-0.24
2023-03-08T19:27:42.700Z,-0.35
2023-03-08T19:30:10.017Z,-0.33
2023-03-08T19:32:36.483Z,-0.33
2023-03-08T19:35:05.596Z,-0.31
2023-03-08T19:37:32.236Z,-0.28
2023-03-08T19:40:01.160Z,-0.19
2023-03-08T19:42:28.353Z,-0.21
2023-03-08T19:44:54.877Z,-0.18
2023-03-08T19:47:21.662Z,-0.24
2023-03-08T19:49:49.497Z,-0.23
2023-03-08T19:52:15.886Z,-0.27
2023-03-08T19:54:44.398Z,-0.18
2023-03-08T19:57:10.936Z,-0.29
2023-03-08T19:59:37.612Z,-0.14
2023-03-08T20:02:05.745Z,-0.19
2023-03-08T20:04:32.240Z,-0.24
2023-03-08T20:07:00.761Z,-0.20
2023-03-08T20:09:27.649Z,-0.20
2023-03-08T20:11:57.726Z,-0.24
2023-03-08T20:14:27.187Z,-0.20
2023-03-08T20:16:54.830Z,-0.10
2023-03-08T20:19:21.492Z,-0.23
2023-03-08T20:21:48.304Z,-0.12
2023-03-08T20:24:17.929Z,-0.15
2023-03-08T20:26:45.986Z,-0.07
2023-03-08T20:29:12.580Z,-0.23
2023-03-08T20:31:39.088Z,-0.24
2023-03-08T20:34:05.784Z,-0.23
2023-03-08T20:36:32.253Z,-0.25
2023-03-08T20:38:59.339Z,-0.23
2023-03-08T20:41:26.570Z,-0.24
2023-03-08T20:43:55.658Z,-0.26
2023-03-08T20:46:30.895Z,-0.20
2023-03-08T20:48:57.474Z,-0.06
2023-03-08T20:51:24.317Z,-0.07
2023-03-08T20:53:54.211Z,-0.08
2023-03-08T20:56:22.522Z,-0.12
2023-03-08T20:58:49.078Z,-0.01
2023-03-08T21:01:19.290Z,-0.07
2023-03-08T21:03:46.942Z,-0.05
2023-03-08T21:06:15.181Z,-0.11
2023-03-08T21:08:41.716Z,-0.12
2023-03-08T21:11:08.693Z,-0.07
2023-03-08T21:13:35.073Z,-0.10
2023-03-08T21:16:08.043Z,-0.07
2023-03-08T21:18:34.575Z,-0.10
2023-03-08T21:21:01.079Z,-0.03
2023-03-08T21:23:27.909Z,-0.09
2023-03-08T21:25:55.036Z,-0.07
2023-03-08T21:28:21.843Z,0.03
2023-03-08T21:30:49.723Z,0.10
2023-03-08T21:33:16.187Z,-0.06
2023-03-08T21:35:43.611Z,-0.12
2023-03-08T21:38:10.446Z,-0.06
2023-03-08T21:40:39.411Z,0.02
2023-03-08T21:43:06.301Z,-0.13
2023-03-08T21:45:37.966Z,-0.06
2023-03-08T21:48:05.294Z,-0.07
2023-03-08T21:50:32.888Z,-0.09
2023-03-08T21:52:59.338Z,-0.11
2023-03-08T21:55:26.073Z,-0.12
2023-03-08T21:57:52.488Z,-0.13
2023-03-08T22:00:18.956Z,-0.04
2023-03-08T22:02:51.602Z,-0.04
2023-03-08T22:05:19.640Z,-0.01
2023-03-08T22:07:46.073Z,-0.06
2023-03-08T22:10:13.967Z,-0.05
2023-03-08T22:12:42.158Z,-0.10
2023-03-08T22:15:09.511Z,0.06
2023-03-08T22:17:35.967Z,-0.05
2023-03-08T22:20:02.645Z,-0.03
2023-03-08T22:22:29.072Z,-0.06
2023-03-08T22:24:55.519Z,-0.01
2023-03-08T22:27:23.834Z,-0.02
2023-03-08T22:29:51.803Z,-0.06
2023-03-08T22:32:18.934Z,-0.07
2023-03-08T22:34:45.445Z,0.02
2023-03-08T22:37:11.879Z,0.02
2023-03-08T22:39:39.359Z,-0.13
2023-03-08T22:42:05.995Z,-0.07
2023-03-08T22:44:32.455Z,-0.03
2023-03-08T22:46:58.969Z,0.05
2023-03-08T22:49:25.376Z,0.02
2023-03-08T22:51:55.117Z,-0.08
2023-03-08T22:54:23.300Z,-0.07
2023-03-08T22:56:50.233Z,-0.09
2023-03-08T22:59:16.897Z,0.04
2023-03-08T23:01:43.374Z,-0.08
2023-03-08T23:04:12.011Z,0.00
2023-03-08T23:06:39.029Z,-0.06
2023-03-08T23:09:08.222Z,-0.06
2023-03-08T23:11:35.845Z,-0.07
2023-03-08T23:14:03.370Z,0.01
2023-03-08T23:16:30.007Z,0.04
2023-03-08T23:18:56.521Z,-0.14
2023-03-08T23:21:24.589Z,-0.11
2023-03-08T23:23:51.214Z,-0.13
2023-03-08T23:26:24.841Z,-0.17
2023-03-08T23:28:51.380Z,-0.15
2023-03-08T23:31:21.067Z,-0.04
2023-03-08T23:33:48.930Z,-0.18
2023-03-08T23:36:17.483Z,-0.21
2023-03-08T23:38:44.518Z,-0.19
2023-03-08T23:41:12.460Z,-0.21
2023-03-08T23:43:39.376Z,-0.31
2023-03-08T23:46:08.184Z,-0.19
2023-03-08T23:48:35.187Z,-0.14
2023-03-08T23:51:10.265Z,-0.27
2023-03-08T23:53:36.765Z,-0.33
2023-03-08T23:56:04.668Z,-0.24
2023-03-08T23:58:31.785Z,-0.31
